sensor_id;sensor_type;location;lat;lon;timestamp;temperature;humidity
65470;DHT22;52067;50.710;14.492;2023-06-26T00:02:23;14.38;87.55
65470;DHT22;52067;50.710;14.492;2023-06-26T00:04:49;14.32;87.74
65470;DHT22;52067;50.710;14.492;2023-06-26T00:07:18;14.38;87.47
65470;DHT22;52067;50.710;14.492;2023-06-26T00:09:43;14.20;87.65
65470;DHT22;52067;50.710;14.492;2023-06-26T00:12:09;13.84;88.69
65470;DHT22;52067;50.710;14.492;2023-06-26T00:14:34;13.85;88.56
65470;DHT22;52067;50.710;14.492;2023-06-26T00:16:59;13.87;88.65
65470;DHT22;52067;50.710;14.492;2023-06-26T00:19:25;14.08;88.28
65470;DHT22;52067;50.710;14.492;2023-06-26T00:21:50;13.95;88.44
65470;DHT22;52067;50.710;14.492;2023-06-26T00:24:17;13.75;89.58
65470;DHT22;52067;50.710;14.492;2023-06-26T00:26:46;13.98;89.13
65470;DHT22;52067;50.710;14.492;2023-06-26T00:29:11;14.05;88.36
65470;DHT22;52067;50.710;14.492;2023-06-26T00:31:37;13.98;88.58
65470;DHT22;52067;50.710;14.492;2023-06-26T00:34:03;13.91;87.30
65470;DHT22;52067;50.710;14.492;2023-06-26T00:36:28;13.95;87.08
65470;DHT22;52067;50.710;14.492;2023-06-26T00:38:54;13.84;87.05
65470;DHT22;52067;50.710;14.492;2023-06-26T00:41:19;13.94;87.32
65470;DHT22;52067;50.710;14.492;2023-06-26T00:43:45;13.97;87.38
65470;DHT22;52067;50.710;14.492;2023-06-26T00:46:13;13.70;87.99
65470;DHT22;52067;50.710;14.492;2023-06-26T00:48:42;13.73;88.07
65470;DHT22;52067;50.710;14.492;2023-06-26T00:51:08;13.84;86.65
65470;DHT22;52067;50.710;14.492;2023-06-26T00:53:34;13.74;86.50
65470;DHT22;52067;50.710;14.492;2023-06-26T00:56:00;13.59;86.45
65470;DHT22;52067;50.710;14.492;2023-06-26T00:58:27;13.75;86.39
65470;DHT22;52067;50.710;14.492;2023-06-26T01:00:52;13.57;87.24
65470;DHT22;52067;50.710;14.492;2023-06-26T01:03:19;13.74;86.90
65470;DHT22;52067;50.710;14.492;2023-06-26T01:05:45;13.78;86.88
65470;DHT22;52067;50.710;14.492;2023-06-26T01:08:12;13.71;86.87
65470;DHT22;52067;50.710;14.492;2023-06-26T01:10:38;13.80;86.71
65470;DHT22;52067;50.710;14.492;2023-06-26T01:13:04;13.81;86.66
65470;DHT22;52067;50.710;14.492;2023-06-26T01:15:30;13.78;86.76
65470;DHT22;52067;50.710;14.492;2023-06-26T01:17:57;13.80;86.68
65470;DHT22;52067;50.710;14.492;2023-06-26T01:20:25;13.71;87.09
65470;DHT22;52067;50.710;14.492;2023-06-26T01:23:20;13.60;87.73
65470;DHT22;52067;50.710;14.492;2023-06-26T01:26:15;13.73;86.96
65470;DHT22;52067;50.710;14.492;2023-06-26T01:28:42;13.70;86.16
65470;DHT22;52067;50.710;14.492;2023-06-26T01:31:08;13.70;86.21
65470;DHT22;52067;50.710;14.492;2023-06-26T01:33:36;13.22;88.53
65470;DHT22;52067;50.710;14.492;2023-06-26T01:36:01;12.89;89.75
65470;DHT22;52067;50.710;14.492;2023-06-26T01:38:28;12.83;89.99
65470;DHT22;52067;50.710;14.492;2023-06-26T01:40:53;12.89;90.05
65470;DHT22;52067;50.710;14.492;2023-06-26T01:46:56;13.08;89.57
65470;DHT22;52067;50.710;14.492;2023-06-26T01:49:46;13.23;89.09
65470;DHT22;52067;50.710;14.492;2023-06-26T01:54:37;12.99;89.17
65470;DHT22;52067;50.710;14.492;2023-06-26T01:57:04;12.95;89.13
65470;DHT22;52067;50.710;14.492;2023-06-26T01:59:32;13.04;89.34
65470;DHT22;52067;50.710;14.492;2023-06-26T02:01:57;12.98;89.25
65470;DHT22;52067;50.710;14.492;2023-06-26T02:04:23;12.94;89.36
65470;DHT22;52067;50.710;14.492;2023-06-26T02:06:48;12.95;89.34
65470;DHT22;52067;50.710;14.492;2023-06-26T02:09:13;13.02;88.89
65470;DHT22;52067;50.710;14.492;2023-06-26T02:11:39;13.11;88.69
65470;DHT22;52067;50.710;14.492;2023-06-26T02:14:04;13.02;88.41
65470;DHT22;52067;50.710;14.492;2023-06-26T02:16:30;13.02;88.40
65470;DHT22;52067;50.710;14.492;2023-06-26T02:18:55;13.14;87.87
65470;DHT22;52067;50.710;14.492;2023-06-26T02:21:22;13.14;87.84
65470;DHT22;52067;50.710;14.492;2023-06-26T02:23:48;13.06;88.15
65470;DHT22;52067;50.710;14.492;2023-06-26T02:26:13;13.18;87.89
65470;DHT22;52067;50.710;14.492;2023-06-26T02:28:38;13.18;87.68
65470;DHT22;52067;50.710;14.492;2023-06-26T02:31:04;13.11;87.43
65470;DHT22;52067;50.710;14.492;2023-06-26T02:33:30;12.94;87.84
65470;DHT22;52067;50.710;14.492;2023-06-26T02:35:55;12.98;87.57
65470;DHT22;52067;50.710;14.492;2023-06-26T02:38:21;12.68;88.00
65470;DHT22;52067;50.710;14.492;2023-06-26T02:40:46;12.73;87.86
65470;DHT22;52067;50.710;14.492;2023-06-26T02:43:11;12.58;88.03
65470;DHT22;52067;50.710;14.492;2023-06-26T02:45:37;12.40;89.80
65470;DHT22;52067;50.710;14.492;2023-06-26T02:48:02;12.60;89.08
65470;DHT22;52067;50.710;14.492;2023-06-26T02:50:28;12.40;88.84
65470;DHT22;52067;50.710;14.492;2023-06-26T02:52:53;12.44;89.08
65470;DHT22;52067;50.710;14.492;2023-06-26T02:55:19;12.38;89.12
65470;DHT22;52067;50.710;14.492;2023-06-26T02:57:45;12.50;88.56
65470;DHT22;52067;50.710;14.492;2023-06-26T03:00:11;12.57;88.24
65470;DHT22;52067;50.710;14.492;2023-06-26T03:02:36;12.57;88.59
65470;DHT22;52067;50.710;14.492;2023-06-26T03:05:02;12.61;88.49
65470;DHT22;52067;50.710;14.492;2023-06-26T03:07:28;12.65;88.37
65470;DHT22;52067;50.710;14.492;2023-06-26T03:09:53;12.44;89.10
65470;DHT22;52067;50.710;14.492;2023-06-26T03:12:19;12.64;89.22
65470;DHT22;52067;50.710;14.492;2023-06-26T03:14:44;12.78;88.39
65470;DHT22;52067;50.710;14.492;2023-06-26T03:17:09;12.85;87.88
65470;DHT22;52067;50.710;14.492;2023-06-26T03:19:35;12.63;88.48
65470;DHT22;52067;50.710;14.492;2023-06-26T03:22:00;12.30;89.15
65470;DHT22;52067;50.710;14.492;2023-06-26T03:24:25;12.30;89.13
65470;DHT22;52067;50.710;14.492;2023-06-26T03:26:51;12.56;88.88
65470;DHT22;52067;50.710;14.492;2023-06-26T03:29:17;12.71;88.40
65470;DHT22;52067;50.710;14.492;2023-06-26T03:31:42;12.73;88.25
65470;DHT22;52067;50.710;14.492;2023-06-26T03:34:07;12.88;88.24
65470;DHT22;52067;50.710;14.492;2023-06-26T03:36:33;12.91;88.05
65470;DHT22;52067;50.710;14.492;2023-06-26T03:38:58;12.91;88.06
65470;DHT22;52067;50.710;14.492;2023-06-26T03:41:25;12.77;88.56
65470;DHT22;52067;50.710;14.492;2023-06-26T03:43:50;12.77;88.96
65470;DHT22;52067;50.710;14.492;2023-06-26T03:46:16;12.67;89.46
65470;DHT22;52067;50.710;14.492;2023-06-26T03:48:41;12.60;89.72
65470;DHT22;52067;50.710;14.492;2023-06-26T03:51:07;12.80;89.49
65470;DHT22;52067;50.710;14.492;2023-06-26T03:53:33;13.04;88.70
65470;DHT22;52067;50.710;14.492;2023-06-26T03:55:58;12.94;88.96
65470;DHT22;52067;50.710;14.492;2023-06-26T03:58:24;13.11;88.43
65470;DHT22;52067;50.710;14.492;2023-06-26T04:00:50;13.26;88.12
65470;DHT22;52067;50.710;14.492;2023-06-26T04:03:16;13.46;87.91
65470;DHT22;52067;50.710;14.492;2023-06-26T04:05:41;13.56;88.08
65470;DHT22;52067;50.710;14.492;2023-06-26T04:08:06;13.64;88.00
65470;DHT22;52067;50.710;14.492;2023-06-26T04:10:32;13.71;88.03
65470;DHT22;52067;50.710;14.492;2023-06-26T04:12:57;13.78;87.85
65470;DHT22;52067;50.710;14.492;2023-06-26T04:15:23;13.73;88.63
65470;DHT22;52067;50.710;14.492;2023-06-26T04:17:48;13.67;89.03
65470;DHT22;52067;50.710;14.492;2023-06-26T04:20:13;13.84;88.58
65470;DHT22;52067;50.710;14.492;2023-06-26T04:22:39;13.97;88.57
65470;DHT22;52067;50.710;14.492;2023-06-26T04:25:05;13.90;88.54
65470;DHT22;52067;50.710;14.492;2023-06-26T04:27:30;14.00;88.40
65470;DHT22;52067;50.710;14.492;2023-06-26T04:29:56;13.91;89.13
65470;DHT22;52067;50.710;14.492;2023-06-26T04:32:21;14.22;88.69
65470;DHT22;52067;50.710;14.492;2023-06-26T04:34:47;14.41;87.79
65470;DHT22;52067;50.710;14.492;2023-06-26T04:37:13;14.41;87.44
65470;DHT22;52067;50.710;14.492;2023-06-26T04:39:41;14.45;87.59
65470;DHT22;52067;50.710;14.492;2023-06-26T04:42:07;14.25;88.22
65470;DHT22;52067;50.710;14.492;2023-06-26T04:44:32;14.35;88.32
65470;DHT22;52067;50.710;14.492;2023-06-26T04:46:58;14.48;87.63
65470;DHT22;52067;50.710;14.492;2023-06-26T04:49:23;14.51;87.47
65470;DHT22;52067;50.710;14.492;2023-06-26T04:51:49;14.49;87.57
65470;DHT22;52067;50.710;14.492;2023-06-26T04:54:16;14.65;87.51
65470;DHT22;52067;50.710;14.492;2023-06-26T04:56:41;14.86;87.24
65470;DHT22;52067;50.710;14.492;2023-06-26T04:59:08;15.11;86.36
65470;DHT22;52067;50.710;14.492;2023-06-26T05:01:38;15.18;86.38
65470;DHT22;52067;50.710;14.492;2023-06-26T05:04:04;15.34;86.58
65470;DHT22;52067;50.710;14.492;2023-06-26T05:06:30;15.32;86.30
65470;DHT22;52067;50.710;14.492;2023-06-26T05:08:55;15.28;86.32
65470;DHT22;52067;50.710;14.492;2023-06-26T05:11:21;15.47;86.06
65470;DHT22;52067;50.710;14.492;2023-06-26T05:13:46;15.57;85.98
65470;DHT22;52067;50.710;14.492;2023-06-26T05:16:12;15.75;85.82
65470;DHT22;52067;50.710;14.492;2023-06-26T05:18:37;15.82;85.84
65470;DHT22;52067;50.710;14.492;2023-06-26T05:21:03;15.65;86.30
65470;DHT22;52067;50.710;14.492;2023-06-26T05:23:32;15.95;85.56
65470;DHT22;52067;50.710;14.492;2023-06-26T05:25:58;16.17;85.54
65470;DHT22;52067;50.710;14.492;2023-06-26T05:28:24;16.20;85.36
65470;DHT22;52067;50.710;14.492;2023-06-26T05:30:51;16.40;84.90
65470;DHT22;52067;50.710;14.492;2023-06-26T05:33:18;16.38;84.51
65470;DHT22;52067;50.710;14.492;2023-06-26T05:35:45;16.45;84.89
65470;DHT22;52067;50.710;14.492;2023-06-26T05:38:12;16.57;84.24
65470;DHT22;52067;50.710;14.492;2023-06-26T05:40:39;16.72;84.53
65470;DHT22;52067;50.710;14.492;2023-06-26T05:43:05;16.89;84.23
65470;DHT22;52067;50.710;14.492;2023-06-26T05:45:31;17.01;83.83
65470;DHT22;52067;50.710;14.492;2023-06-26T05:47:56;16.98;83.78
65470;DHT22;52067;50.710;14.492;2023-06-26T05:50:22;17.20;83.27
65470;DHT22;52067;50.710;14.492;2023-06-26T05:52:48;17.27;83.04
65470;DHT22;52067;50.710;14.492;2023-06-26T05:55:14;17.55;82.71
65470;DHT22;52067;50.710;14.492;2023-06-26T05:57:40;17.60;82.50
65470;DHT22;52067;50.710;14.492;2023-06-26T06:00:08;17.77;82.95
65470;DHT22;52067;50.710;14.492;2023-06-26T06:02:39;17.81;82.00
65470;DHT22;52067;50.710;14.492;2023-06-26T06:05:05;17.98;81.36
65470;DHT22;52067;50.710;14.492;2023-06-26T06:07:34;18.06;81.32
65470;DHT22;52067;50.710;14.492;2023-06-26T06:10:00;18.32;81.13
65470;DHT22;52067;50.710;14.492;2023-06-26T06:12:26;18.33;81.35
65470;DHT22;52067;50.710;14.492;2023-06-26T06:14:52;18.59;80.73
65470;DHT22;52067;50.710;14.492;2023-06-26T06:17:18;18.74;79.92
65470;DHT22;52067;50.710;14.492;2023-06-26T06:19:45;18.97;79.72
65470;DHT22;52067;50.710;14.492;2023-06-26T06:22:10;19.14;79.09
65470;DHT22;52067;50.710;14.492;2023-06-26T06:24:35;19.25;78.42
65470;DHT22;52067;50.710;14.492;2023-06-26T06:27:01;19.47;77.86
65470;DHT22;52067;50.710;14.492;2023-06-26T06:29:26;19.62;77.03
65470;DHT22;52067;50.710;14.492;2023-06-26T06:31:52;19.72;76.42
65470;DHT22;52067;50.710;14.492;2023-06-26T06:34:17;19.96;75.85
65470;DHT22;52067;50.710;14.492;2023-06-26T06:36:42;19.89;74.11
65470;DHT22;52067;50.710;14.492;2023-06-26T06:39:08;19.97;73.45
65470;DHT22;52067;50.710;14.492;2023-06-26T06:41:33;20.03;73.87
65470;DHT22;52067;50.710;14.492;2023-06-26T06:43:59;20.12;74.26
65470;DHT22;52067;50.710;14.492;2023-06-26T06:46:24;20.17;74.56
65470;DHT22;52067;50.710;14.492;2023-06-26T06:48:52;20.31;74.07
65470;DHT22;52067;50.710;14.492;2023-06-26T06:51:17;20.43;73.23
65470;DHT22;52067;50.710;14.492;2023-06-26T06:53:43;20.59;72.83
65470;DHT22;52067;50.710;14.492;2023-06-26T06:56:08;20.68;73.96
65470;DHT22;52067;50.710;14.492;2023-06-26T06:58:33;20.79;72.71
65470;DHT22;52067;50.710;14.492;2023-06-26T07:01:01;20.99;74.04
65470;DHT22;52067;50.710;14.492;2023-06-26T07:03:29;21.27;71.63
65470;DHT22;52067;50.710;14.492;2023-06-26T07:05:55;21.29;74.16
65470;DHT22;52067;50.710;14.492;2023-06-26T07:08:20;21.44;72.70
65470;DHT22;52067;50.710;14.492;2023-06-26T07:10:46;21.43;70.16
65470;DHT22;52067;50.710;14.492;2023-06-26T07:13:11;21.57;71.14
65470;DHT22;52067;50.710;14.492;2023-06-26T07:15:37;21.65;70.21
65470;DHT22;52067;50.710;14.492;2023-06-26T07:18:02;21.43;68.88
65470;DHT22;52067;50.710;14.492;2023-06-26T07:20:27;21.47;68.40
65470;DHT22;52067;50.710;14.492;2023-06-26T07:22:53;21.65;68.64
65470;DHT22;52067;50.710;14.492;2023-06-26T07:25:18;21.81;68.11
65470;DHT22;52067;50.710;14.492;2023-06-26T07:27:44;22.02;69.85
65470;DHT22;52067;50.710;14.492;2023-06-26T07:30:10;22.23;66.93
65470;DHT22;52067;50.710;14.492;2023-06-26T07:32:36;22.30;67.39
65470;DHT22;52067;50.710;14.492;2023-06-26T07:35:01;22.19;66.23
65470;DHT22;52067;50.710;14.492;2023-06-26T07:37:28;22.25;68.53
65470;DHT22;52067;50.710;14.492;2023-06-26T07:39:53;22.35;66.26
65470;DHT22;52067;50.710;14.492;2023-06-26T07:42:19;22.36;66.34
65470;DHT22;52067;50.710;14.492;2023-06-26T07:44:44;22.59;65.28
65470;DHT22;52067;50.710;14.492;2023-06-26T07:47:10;22.77;65.28
65470;DHT22;52067;50.710;14.492;2023-06-26T07:49:35;23.06;67.50
65470;DHT22;52067;50.710;14.492;2023-06-26T07:52:01;23.22;66.62
65470;DHT22;52067;50.710;14.492;2023-06-26T07:54:27;23.15;64.76
65470;DHT22;52067;50.710;14.492;2023-06-26T07:59:20;23.37;64.88
65470;DHT22;52067;50.710;14.492;2023-06-26T08:01:47;23.49;64.46
65470;DHT22;52067;50.710;14.492;2023-06-26T08:04:13;23.59;64.28
65470;DHT22;52067;50.710;14.492;2023-06-26T08:06:38;23.66;64.61
65470;DHT22;52067;50.710;14.492;2023-06-26T08:09:06;23.75;63.34
65470;DHT22;52067;50.710;14.492;2023-06-26T08:11:33;23.83;63.84
65470;DHT22;52067;50.710;14.492;2023-06-26T08:13:59;23.86;61.14
65470;DHT22;52067;50.710;14.492;2023-06-26T08:16:24;24.07;63.27
65470;DHT22;52067;50.710;14.492;2023-06-26T08:18:49;24.03;62.22
65470;DHT22;52067;50.710;14.492;2023-06-26T08:21:15;23.97;61.56
65470;DHT22;52067;50.710;14.492;2023-06-26T08:23:40;24.14;62.72
65470;DHT22;52067;50.710;14.492;2023-06-26T08:26:05;24.24;61.74
65470;DHT22;52067;50.710;14.492;2023-06-26T08:28:31;24.62;61.74
65470;DHT22;52067;50.710;14.492;2023-06-26T08:30:56;24.82;60.36
65470;DHT22;52067;50.710;14.492;2023-06-26T08:33:21;24.76;61.57
65470;DHT22;52067;50.710;14.492;2023-06-26T08:35:47;24.91;59.86
65470;DHT22;52067;50.710;14.492;2023-06-26T08:38:12;24.67;60.09
65470;DHT22;52067;50.710;14.492;2023-06-26T08:40:37;24.69;60.04
65470;DHT22;52067;50.710;14.492;2023-06-26T08:43:04;24.82;59.69
65470;DHT22;52067;50.710;14.492;2023-06-26T08:45:29;24.93;60.13
65470;DHT22;52067;50.710;14.492;2023-06-26T08:47:59;25.13;59.58
65470;DHT22;52067;50.710;14.492;2023-06-26T08:50:28;25.33;60.11
65470;DHT22;52067;50.710;14.492;2023-06-26T08:53:03;25.27;59.78
65470;DHT22;52067;50.710;14.492;2023-06-26T08:55:31;25.31;55.19
65470;DHT22;52067;50.710;14.492;2023-06-26T08:57:58;25.26;55.28
65470;DHT22;52067;50.710;14.492;2023-06-26T09:00:24;25.59;55.00
65470;DHT22;52067;50.710;14.492;2023-06-26T09:02:50;25.66;55.48
65470;DHT22;52067;50.710;14.492;2023-06-26T09:05:15;25.53;55.88
65470;DHT22;52067;50.710;14.492;2023-06-26T09:07:40;25.41;55.08
65470;DHT22;52067;50.710;14.492;2023-06-26T09:10:07;25.77;56.91
65470;DHT22;52067;50.710;14.492;2023-06-26T09:12:33;25.99;54.78
65470;DHT22;52067;50.710;14.492;2023-06-26T09:14:58;26.22;56.39
65470;DHT22;52067;50.710;14.492;2023-06-26T09:17:25;26.18;53.90
65470;DHT22;52067;50.710;14.492;2023-06-26T09:19:54;26.47;53.01
65470;DHT22;52067;50.710;14.492;2023-06-26T09:22:19;26.49;52.89
65470;DHT22;52067;50.710;14.492;2023-06-26T09:24:45;26.82;51.72
65470;DHT22;52067;50.710;14.492;2023-06-26T09:27:11;26.70;50.24
65470;DHT22;52067;50.710;14.492;2023-06-26T09:29:36;27.08;51.31
65470;DHT22;52067;50.710;14.492;2023-06-26T09:32:02;27.32;51.30
65470;DHT22;52067;50.710;14.492;2023-06-26T09:34:31;27.41;50.19
65470;DHT22;52067;50.710;14.492;2023-06-26T09:36:58;27.37;50.19
65470;DHT22;52067;50.710;14.492;2023-06-26T09:39:24;26.96;49.83
65470;DHT22;52067;50.710;14.492;2023-06-26T09:41:49;27.32;48.72
65470;DHT22;52067;50.710;14.492;2023-06-26T09:44:15;27.38;48.83
65470;DHT22;52067;50.710;14.492;2023-06-26T09:46:40;26.90;50.16
65470;DHT22;52067;50.710;14.492;2023-06-26T09:49:09;27.05;48.83
65470;DHT22;52067;50.710;14.492;2023-06-26T09:51:39;27.31;47.07
65470;DHT22;52067;50.710;14.492;2023-06-26T09:54:06;27.49;46.40
65470;DHT22;52067;50.710;14.492;2023-06-26T09:56:33;27.59;49.18
65470;DHT22;52067;50.710;14.492;2023-06-26T09:59:01;27.93;49.22
65470;DHT22;52067;50.710;14.492;2023-06-26T10:01:27;28.16;47.51
65470;DHT22;52067;50.710;14.492;2023-06-26T10:03:53;28.10;46.46
65470;DHT22;52067;50.710;14.492;2023-06-26T10:06:22;28.09;48.98
65470;DHT22;52067;50.710;14.492;2023-06-26T10:08:49;28.37;45.80
65470;DHT22;52067;50.710;14.492;2023-06-26T10:11:16;28.34;47.24
65470;DHT22;52067;50.710;14.492;2023-06-26T10:13:45;28.55;47.32
65470;DHT22;52067;50.710;14.492;2023-06-26T10:16:13;27.90;45.48
65470;DHT22;52067;50.710;14.492;2023-06-26T10:18:43;28.13;47.15
65470;DHT22;52067;50.710;14.492;2023-06-26T10:21:09;28.37;46.95
65470;DHT22;52067;50.710;14.492;2023-06-26T10:23:36;28.47;47.10
65470;DHT22;52067;50.710;14.492;2023-06-26T10:26:03;28.36;45.99
65470;DHT22;52067;50.710;14.492;2023-06-26T10:28:31;28.25;46.97
65470;DHT22;52067;50.710;14.492;2023-06-26T10:30:58;28.64;45.59
65470;DHT22;52067;50.710;14.492;2023-06-26T10:33:25;28.40;45.61
65470;DHT22;52067;50.710;14.492;2023-06-26T10:35:51;28.39;47.07
65470;DHT22;52067;50.710;14.492;2023-06-26T10:38:16;28.25;46.59
65470;DHT22;52067;50.710;14.492;2023-06-26T10:40:47;28.45;46.96
65470;DHT22;52067;50.710;14.492;2023-06-26T10:43:16;29.09;47.72
65470;DHT22;52067;50.710;14.492;2023-06-26T10:45:45;29.82;42.17
65470;DHT22;52067;50.710;14.492;2023-06-26T10:48:13;29.95;42.75
65470;DHT22;52067;50.710;14.492;2023-06-26T10:50:39;30.69;42.59
65470;DHT22;52067;50.710;14.492;2023-06-26T10:56:04;31.34;40.29
65470;DHT22;52067;50.710;14.492;2023-06-26T10:58:32;33.21;38.17
65470;DHT22;52067;50.710;14.492;2023-06-26T11:01:19;33.83;35.85
65470;DHT22;52067;50.710;14.492;2023-06-26T11:06:20;33.52;35.88
65470;DHT22;52067;50.710;14.492;2023-06-26T11:08:50;33.62;35.92
65470;DHT22;52067;50.710;14.492;2023-06-26T11:11:18;33.98;37.04
65470;DHT22;52067;50.710;14.492;2023-06-26T11:13:45;35.00;32.34
65470;DHT22;52067;50.710;14.492;2023-06-26T11:16:11;35.11;32.83
65470;DHT22;52067;50.710;14.492;2023-06-26T11:18:38;32.86;37.05
65470;DHT22;52067;50.710;14.492;2023-06-26T11:21:10;35.89;32.30
65470;DHT22;52067;50.710;14.492;2023-06-26T11:23:39;35.06;31.60
65470;DHT22;52067;50.710;14.492;2023-06-26T11:28:46;34.45;34.15
65470;DHT22;52067;50.710;14.492;2023-06-26T11:31:30;33.94;33.59
65470;DHT22;52067;50.710;14.492;2023-06-26T11:34:01;35.55;30.83
65470;DHT22;52067;50.710;14.492;2023-06-26T11:36:28;36.26;31.22
65470;DHT22;52067;50.710;14.492;2023-06-26T11:38:55;36.26;29.98
65470;DHT22;52067;50.710;14.492;2023-06-26T11:41:21;35.66;32.87
65470;DHT22;52067;50.710;14.492;2023-06-26T11:43:47;35.33;31.60
65470;DHT22;52067;50.710;14.492;2023-06-26T11:46:12;35.88;32.49
65470;DHT22;52067;50.710;14.492;2023-06-26T11:48:38;35.77;31.06
65470;DHT22;52067;50.710;14.492;2023-06-26T11:51:05;36.86;30.58
65470;DHT22;52067;50.710;14.492;2023-06-26T11:53:30;37.25;29.88
65470;DHT22;52067;50.710;14.492;2023-06-26T11:55:56;36.91;29.80
65470;DHT22;52067;50.710;14.492;2023-06-26T11:58:22;34.32;32.60
65470;DHT22;52067;50.710;14.492;2023-06-26T12:00:48;33.02;35.58
65470;DHT22;52067;50.710;14.492;2023-06-26T12:03:13;34.79;34.27
65470;DHT22;52067;50.710;14.492;2023-06-26T12:05:39;34.78;32.78
65470;DHT22;52067;50.710;14.492;2023-06-26T12:08:05;35.61;31.59
65470;DHT22;52067;50.710;14.492;2023-06-26T12:10:32;35.62;31.25
65470;DHT22;52067;50.710;14.492;2023-06-26T12:12:58;34.80;32.86
65470;DHT22;52067;50.710;14.492;2023-06-26T12:15:27;33.35;37.04
65470;DHT22;52067;50.710;14.492;2023-06-26T12:17:53;33.63;36.20
65470;DHT22;52067;50.710;14.492;2023-06-26T12:20:20;34.25;32.98
65470;DHT22;52067;50.710;14.492;2023-06-26T12:22:47;34.39;33.66
65470;DHT22;52067;50.710;14.492;2023-06-26T12:25:13;35.55;32.24
65470;DHT22;52067;50.710;14.492;2023-06-26T12:27:38;35.94;33.25
65470;DHT22;52067;50.710;14.492;2023-06-26T12:30:05;34.56;32.36
65470;DHT22;52067;50.710;14.492;2023-06-26T12:32:34;33.78;33.56
65470;DHT22;52067;50.710;14.492;2023-06-26T12:35:00;32.58;35.94
65470;DHT22;52067;50.710;14.492;2023-06-26T12:37:26;33.01;35.68
65470;DHT22;52067;50.710;14.492;2023-06-26T12:42:23;34.01;34.48
65470;DHT22;52067;50.710;14.492;2023-06-26T12:44:49;33.25;34.77
65470;DHT22;52067;50.710;14.492;2023-06-26T12:47:16;31.80;38.14
65470;DHT22;52067;50.710;14.492;2023-06-26T12:49:49;31.88;36.59
65470;DHT22;52067;50.710;14.492;2023-06-26T12:52:15;32.41;35.87
65470;DHT22;52067;50.710;14.492;2023-06-26T12:54:42;31.43;38.10
65470;DHT22;52067;50.710;14.492;2023-06-26T12:57:09;31.68;39.23
65470;DHT22;52067;50.710;14.492;2023-06-26T12:59:37;33.69;34.81
65470;DHT22;52067;50.710;14.492;2023-06-26T13:02:04;34.10;35.10
65470;DHT22;52067;50.710;14.492;2023-06-26T13:04:29;36.56;30.99
65470;DHT22;52067;50.710;14.492;2023-06-26T13:06:55;36.32;32.53
65470;DHT22;52067;50.710;14.492;2023-06-26T13:09:22;35.45;35.01
65470;DHT22;52067;50.710;14.492;2023-06-26T13:11:48;36.88;30.51
65470;DHT22;52067;50.710;14.492;2023-06-26T13:14:14;36.52;31.09
65470;DHT22;52067;50.710;14.492;2023-06-26T13:16:39;36.19;32.23
65470;DHT22;52067;50.710;14.492;2023-06-26T13:19:05;35.55;32.46
65470;DHT22;52067;50.710;14.492;2023-06-26T13:21:31;35.88;32.64
65470;DHT22;52067;50.710;14.492;2023-06-26T13:23:56;37.48;31.15
65470;DHT22;52067;50.710;14.492;2023-06-26T13:26:23;37.99;28.33
65470;DHT22;52067;50.710;14.492;2023-06-26T13:28:49;36.57;30.22
65470;DHT22;52067;50.710;14.492;2023-06-26T13:31:15;37.56;29.94
65470;DHT22;52067;50.710;14.492;2023-06-26T13:33:41;37.89;29.32
65470;DHT22;52067;50.710;14.492;2023-06-26T13:36:06;36.19;30.49
65470;DHT22;52067;50.710;14.492;2023-06-26T13:38:33;36.29;31.46
65470;DHT22;52067;50.710;14.492;2023-06-26T13:40:59;36.28;30.63
65470;DHT22;52067;50.710;14.492;2023-06-26T13:43:29;34.44;33.59
65470;DHT22;52067;50.710;14.492;2023-06-26T13:45:55;33.33;35.61
65470;DHT22;52067;50.710;14.492;2023-06-26T13:48:20;33.08;36.71
65470;DHT22;52067;50.710;14.492;2023-06-26T13:50:46;33.94;36.45
65470;DHT22;52067;50.710;14.492;2023-06-26T13:53:12;34.65;33.76
65470;DHT22;52067;50.710;14.492;2023-06-26T13:55:37;36.02;31.15
65470;DHT22;52067;50.710;14.492;2023-06-26T13:58:07;37.32;30.70
65470;DHT22;52067;50.710;14.492;2023-06-26T14:00:33;37.39;28.83
65470;DHT22;52067;50.710;14.492;2023-06-26T14:03:05;36.15;30.97
65470;DHT22;52067;50.710;14.492;2023-06-26T14:05:32;36.37;31.08
65470;DHT22;52067;50.710;14.492;2023-06-26T14:07:58;36.52;31.43
65470;DHT22;52067;50.710;14.492;2023-06-26T14:10:23;36.69;30.87
65470;DHT22;52067;50.710;14.492;2023-06-26T14:12:49;34.96;33.76
65470;DHT22;52067;50.710;14.492;2023-06-26T14:15:15;35.61;30.97
65470;DHT22;52067;50.710;14.492;2023-06-26T14:17:40;36.16;30.38
65470;DHT22;52067;50.710;14.492;2023-06-26T14:20:07;37.86;28.77
65470;DHT22;52067;50.710;14.492;2023-06-26T14:22:40;37.72;29.64
65470;DHT22;52067;50.710;14.492;2023-06-26T14:25:09;38.41;27.92
65470;DHT22;52067;50.710;14.492;2023-06-26T14:27:35;37.52;29.04
65470;DHT22;52067;50.710;14.492;2023-06-26T14:30:01;35.18;33.22
65470;DHT22;52067;50.710;14.492;2023-06-26T14:32:27;33.80;37.78
65470;DHT22;52067;50.710;14.492;2023-06-26T14:34:53;35.62;34.10
65470;DHT22;52067;50.710;14.492;2023-06-26T14:37:18;35.73;34.07
65470;DHT22;52067;50.710;14.492;2023-06-26T14:39:45;36.39;32.21
65470;DHT22;52067;50.710;14.492;2023-06-26T14:42:10;35.54;30.44
65470;DHT22;52067;50.710;14.492;2023-06-26T14:44:36;35.70;31.40
65470;DHT22;52067;50.710;14.492;2023-06-26T14:47:01;35.94;30.70
65470;DHT22;52067;50.710;14.492;2023-06-26T14:49:27;36.46;30.69
65470;DHT22;52067;50.710;14.492;2023-06-26T14:51:52;36.39;29.12
65470;DHT22;52067;50.710;14.492;2023-06-26T14:54:17;37.64;28.32
65470;DHT22;52067;50.710;14.492;2023-06-26T14:56:43;36.98;29.69
65470;DHT22;52067;50.710;14.492;2023-06-26T14:59:11;38.88;26.53
65470;DHT22;52067;50.710;14.492;2023-06-26T15:01:36;38.51;27.66
65470;DHT22;52067;50.710;14.492;2023-06-26T15:04:01;39.43;26.61
65470;DHT22;52067;50.710;14.492;2023-06-26T15:06:27;38.37;28.19
65470;DHT22;52067;50.710;14.492;2023-06-26T15:08:52;37.28;29.23
65470;DHT22;52067;50.710;14.492;2023-06-26T15:11:18;36.88;29.95
65470;DHT22;52067;50.710;14.492;2023-06-26T15:13:43;35.45;33.49
65470;DHT22;52067;50.710;14.492;2023-06-26T15:16:09;34.90;33.16
65470;DHT22;52067;50.710;14.492;2023-06-26T15:18:34;38.06;27.77
65470;DHT22;52067;50.710;14.492;2023-06-26T15:21:00;37.43;29.34
65470;DHT22;52067;50.710;14.492;2023-06-26T15:23:28;35.73;32.64
65470;DHT22;52067;50.710;14.492;2023-06-26T15:25:53;37.54;28.09
65470;DHT22;52067;50.710;14.492;2023-06-26T15:28:18;35.59;32.29
65470;DHT22;52067;50.710;14.492;2023-06-26T15:30:45;35.33;31.32